Christy T — WDE7137 — position and weather

sailwx.info

Track history (hours):
 
Tides and Currents Weather Stations Pressure Air Temp Water Temp Dewpoint Dewpoint Depression Visibility Wind Speed Wind Dir Waves Ship Positions

Christy T

Owner: Terral RiverService, Inc., Lake Providence, LA. More information available from US FCC via Universal Licensing System and Coast Guard Vessel Documentation Center.

Last reported at 2014-Oct-10 17:21 UTC. Time now 2014-Oct-24 18:56 UTC.
Position N 30°03' W 090°36'.
Warning: this ship's position is 14 days out of date.

Length 30 m.

Type: Towing. MMSI: 367389450.

Date/timePositionNaut miles runAvg speedWind from/ knotsBaromVisibWave heightAir tempDewpointWater temp
2014-Oct-10 17:21N 30°03' W 090°36'5 0.5
2014-Oct-10 07:21N 30°03' W 090°31'5 6.1
2014-Oct-10 06:33N 30°03' W 090°36'0 0.1
2014-Oct-10 05:33N 30°02' W 090°36'  
2014-Oct-03 12:32N 29°59' W 090°49'5 4.7
2014-Oct-03 11:33N 30°01' W 090°44'5 4.9
2014-Oct-03 10:33N 30°03' W 090°38'2 2.2
2014-Oct-03 09:33N 30°03' W 090°36'0 0.0
2014-Oct-03 08:33N 30°03' W 090°36'0 0.0
2014-Oct-03 07:33N 30°03' W 090°36'0 0.0
2014-Oct-03 06:32N 30°03' W 090°36'0 0.0
2014-Oct-03 05:33N 30°03' W 090°36'4 3.9
2014-Oct-03 04:33N 30°03' W 090°31'5 4.5
2014-Oct-03 03:33N 29°60' W 090°27'3 3.1
2014-Oct-03 02:33N 29°59' W 090°24'3 3.4
2014-Oct-03 01:33N 29°60' W 090°28'7 6.6
2014-Oct-03 00:33N 30°03' W 090°34'7 7.1
2014-Oct-02 23:33N 30°01' W 090°42'  
Track history (hours):
 
Tides and Currents Weather Stations Pressure Air Temp Water Temp Dewpoint Dewpoint Depression Visibility Wind Speed Wind Dir Waves Ship Positions

Christy T

Owner: Terral RiverService, Inc., Lake Providence, LA. More information available from US FCC via Universal Licensing System and Coast Guard Vessel Documentation Center.

Last reported at 2014-Oct-10 17:21 UTC. Time now 2014-Oct-24 18:56 UTC.
Position N 30°03' W 090°36'.
Warning: this ship's position is 14 days out of date.

Length 30 m.

Type: Towing. MMSI: 367389450.

Date/timePositionNaut miles runAvg speedWind from/ knotsBaromVisibWave heightAir tempDewpointWater temp
2014-Oct-10 17:21N 30°03' W 090°36'5 0.5
2014-Oct-10 07:21N 30°03' W 090°31'5 6.1
2014-Oct-10 06:33N 30°03' W 090°36'0 0.1
2014-Oct-10 05:33N 30°02' W 090°36'  
2014-Oct-03 12:32N 29°59' W 090°49'5 4.7
2014-Oct-03 11:33N 30°01' W 090°44'5 4.9
2014-Oct-03 10:33N 30°03' W 090°38'2 2.2
2014-Oct-03 09:33N 30°03' W 090°36'0 0.0
2014-Oct-03 08:33N 30°03' W 090°36'0 0.0
2014-Oct-03 07:33N 30°03' W 090°36'0 0.0
2014-Oct-03 06:32N 30°03' W 090°36'0 0.0
2014-Oct-03 05:33N 30°03' W 090°36'4 3.9
2014-Oct-03 04:33N 30°03' W 090°31'5 4.5
2014-Oct-03 03:33N 29°60' W 090°27'3 3.1
2014-Oct-03 02:33N 29°59' W 090°24'3 3.4
2014-Oct-03 01:33N 29°60' W 090°28'7 6.6
2014-Oct-03 00:33N 30°03' W 090°34'7 7.1
2014-Oct-02 23:33N 30°01' W 090°42'  

Dump ship's entire track history